KMHK/MHK METAR and TAF weather

Enter ICAO airport designator
Station Type Date Time Source
KMHK METAR 2020/09/22 21:52 UTC NOAA

KMHK 222152Z 17010KT 10SM FEW035 26/17 A3005 RMK AO2 SLP172 T02560167


Station Type Date Time Source
KMHK Decoded METAR 2020/09/22 21:52 UTC NOAA

MANHATTAN REGIONAL AIRPORT, KS, United States (KMHK) 39-08N 96-41W 317M
Sep 22, 2020 - 05:52 PM EDT / 2020.09.22 2152 UTC
Wind: from the S (170 degrees) at 12 MPH (10 KT):0
Visibility: 10 mile(s):0
Sky conditions: mostly clear
Temperature: 78.1 F (25.6 C)
Dew Point: 62.1 F (16.7 C)
Relative Humidity: 57%
Pressure (altimeter): 30.05 in. Hg (1017 hPa)
ob: KMHK 222152Z 17010KT 10SM FEW035 26/17 A3005 RMK AO2 SLP172 T02560167
cycle: 22

Station Type Date Time Source
KMHK TAF 2020/09/22 18:28 UTC NOAA

TAF KMHK 221726Z 2218/2318 18006KT P6SM SCT250
FM230700 19004KT 5SM BR BKN009
FM231500 21007KT P6SM BKN015

Example: see airport list